sensor_id;sensor_type;location;lat;lon;timestamp;pressure;altitude;pressure_sealevel;temperature;humidity
63339;BME280;47485;51.378;-1.342;2023-05-02T00:00:27;100880.75;;;13.40;26.94
63339;BME280;47485;51.378;-1.342;2023-05-02T00:02:55;100881.65;;;14.37;27.25
63339;BME280;47485;51.378;-1.342;2023-05-02T00:05:21;100882.59;;;13.83;28.38
63339;BME280;47485;51.378;-1.342;2023-05-02T00:07:48;100881.47;;;12.99;28.32
63339;BME280;47485;51.378;-1.342;2023-05-02T00:10:15;100881.81;;;10.24;30.64
63339;BME280;47485;51.378;-1.342;2023-05-02T00:12:44;100882.72;;;12.35;28.37
63339;BME280;47485;51.378;-1.342;2023-05-02T00:15:10;100884.11;;;12.89;28.70
63339;BME280;47485;51.378;-1.342;2023-05-02T00:17:39;100884.69;;;13.15;29.27
63339;BME280;47485;51.378;-1.342;2023-05-02T00:20:07;100885.67;;;11.89;29.52
63339;BME280;47485;51.378;-1.342;2023-05-02T00:22:34;100889.26;;;11.38;30.03
63339;BME280;47485;51.378;-1.342;2023-05-02T00:25:01;100890.70;;;12.13;30.61
63339;BME280;47485;51.378;-1.342;2023-05-02T00:27:28;100888.62;;;11.77;30.48
63339;BME280;47485;51.378;-1.342;2023-05-02T00:29:55;100882.93;;;13.08;30.02
63339;BME280;47485;51.378;-1.342;2023-05-02T00:32:22;100882.63;;;11.97;29.75
63339;BME280;47485;51.378;-1.342;2023-05-02T00:34:48;100886.11;;;11.93;29.78
63339;BME280;47485;51.378;-1.342;2023-05-02T00:37:15;100887.63;;;12.20;29.72
63339;BME280;47485;51.378;-1.342;2023-05-02T00:39:42;100889.66;;;12.47;29.39
63339;BME280;47485;51.378;-1.342;2023-05-02T00:42:09;100888.98;;;12.65;29.20
63339;BME280;47485;51.378;-1.342;2023-05-02T00:44:36;100887.01;;;11.41;30.48
63339;BME280;47485;51.378;-1.342;2023-05-02T00:47:03;100892.88;;;11.81;31.66
63339;BME280;47485;51.378;-1.342;2023-05-02T00:49:30;100895.15;;;9.98;32.49
63339;BME280;47485;51.378;-1.342;2023-05-02T00:51:57;100900.92;;;8.57;33.40
63339;BME280;47485;51.378;-1.342;2023-05-02T00:54:24;100899.32;;;8.97;33.39
63339;BME280;47485;51.378;-1.342;2023-05-02T00:56:51;100893.23;;;10.84;30.37
63339;BME280;47485;51.378;-1.342;2023-05-02T00:59:18;100890.74;;;11.64;29.57
63339;BME280;47485;51.378;-1.342;2023-05-02T01:01:54;100896.68;;;11.17;28.78
63339;BME280;47485;51.378;-1.342;2023-05-02T01:04:31;100895.37;;;10.66;29.16
63339;BME280;47485;51.378;-1.342;2023-05-02T01:07:17;100894.05;;;11.88;27.32
63339;BME280;47485;51.378;-1.342;2023-05-02T01:09:58;100886.60;;;13.53;26.09
63339;BME280;47485;51.378;-1.342;2023-05-02T01:12:32;100890.10;;;13.50;27.13
63339;BME280;47485;51.378;-1.342;2023-05-02T01:15:06;100887.19;;;12.90;27.94
63339;BME280;47485;51.378;-1.342;2023-05-02T01:17:35;100891.15;;;13.01;28.10
63339;BME280;47485;51.378;-1.342;2023-05-02T01:20:07;100892.35;;;10.79;29.47
63339;BME280;47485;51.378;-1.342;2023-05-02T01:22:37;100895.28;;;10.34;30.58
63339;BME280;47485;51.378;-1.342;2023-05-02T01:25:16;100891.92;;;9.86;30.30
63339;BME280;47485;51.378;-1.342;2023-05-02T01:27:57;100895.13;;;10.79;29.90
63339;BME280;47485;51.378;-1.342;2023-05-02T01:30:28;100896.47;;;8.11;30.99
63339;BME280;47485;51.378;-1.342;2023-05-02T01:32:57;100890.31;;;13.07;27.37
63339;BME280;47485;51.378;-1.342;2023-05-02T01:35:26;100895.55;;;12.84;26.88
63339;BME280;47485;51.378;-1.342;2023-05-02T01:37:54;100900.90;;;12.19;28.72
63339;BME280;47485;51.378;-1.342;2023-05-02T01:40:23;100898.46;;;11.63;29.69
63339;BME280;47485;51.378;-1.342;2023-05-02T01:42:52;100902.38;;;11.22;30.13
63339;BME280;47485;51.378;-1.342;2023-05-02T01:45:21;100902.36;;;10.62;29.78
63339;BME280;47485;51.378;-1.342;2023-05-02T01:47:49;100907.99;;;11.64;30.61
63339;BME280;47485;51.378;-1.342;2023-05-02T01:50:21;100914.71;;;9.76;31.77
63339;BME280;47485;51.378;-1.342;2023-05-02T01:52:52;100922.09;;;10.22;32.39
63339;BME280;47485;51.378;-1.342;2023-05-02T01:55:19;100924.73;;;10.42;32.30
63339;BME280;47485;51.378;-1.342;2023-05-02T01:57:46;100925.56;;;9.36;32.29
63339;BME280;47485;51.378;-1.342;2023-05-02T02:00:15;100929.29;;;9.57;32.92
63339;BME280;47485;51.378;-1.342;2023-05-02T02:02:44;100928.07;;;8.99;33.48
63339;BME280;47485;51.378;-1.342;2023-05-02T02:05:12;100924.82;;;9.64;33.09
63339;BME280;47485;51.378;-1.342;2023-05-02T02:07:39;100923.73;;;9.96;32.25
63339;BME280;47485;51.378;-1.342;2023-05-02T02:10:06;100924.60;;;10.58;31.66
63339;BME280;47485;51.378;-1.342;2023-05-02T02:12:39;100927.24;;;9.69;31.00
63339;BME280;47485;51.378;-1.342;2023-05-02T02:15:15;100928.72;;;10.66;30.69
63339;BME280;47485;51.378;-1.342;2023-05-02T02:17:47;100927.55;;;10.04;30.43
63339;BME280;47485;51.378;-1.342;2023-05-02T02:20:15;100932.42;;;6.85;32.81
63339;BME280;47485;51.378;-1.342;2023-05-02T02:22:42;100936.88;;;1.43;39.06
63339;BME280;47485;51.378;-1.342;2023-05-02T02:25:13;100935.24;;;3.10;36.97
63339;BME280;47485;51.378;-1.342;2023-05-02T02:27:41;100937.08;;;4.91;33.74
63339;BME280;47485;51.378;-1.342;2023-05-02T02:30:09;100937.45;;;5.45;33.09
63339;BME280;47485;51.378;-1.342;2023-05-02T02:32:37;100939.56;;;1.32;37.49
63339;BME280;47485;51.378;-1.342;2023-05-02T02:35:04;100936.18;;;4.20;35.57
63339;BME280;47485;51.378;-1.342;2023-05-02T02:37:34;100940.15;;;0.65;39.70
63339;BME280;47485;51.378;-1.342;2023-05-02T02:40:10;100942.59;;;3.98;37.14
63339;BME280;47485;51.378;-1.342;2023-05-02T02:42:42;100944.36;;;5.43;34.97
63339;BME280;47485;51.378;-1.342;2023-05-02T02:45:18;100945.21;;;3.26;36.46
63339;BME280;47485;51.378;-1.342;2023-05-02T02:47:55;100945.57;;;3.67;36.05
63339;BME280;47485;51.378;-1.342;2023-05-02T02:50:31;100943.30;;;8.65;31.37
63339;BME280;47485;51.378;-1.342;2023-05-02T02:53:04;100945.40;;;10.06;29.51
63339;BME280;47485;51.378;-1.342;2023-05-02T02:55:37;100944.50;;;9.60;28.52
63339;BME280;47485;51.378;-1.342;2023-05-02T02:58:17;100942.07;;;10.24;28.51
63339;BME280;47485;51.378;-1.342;2023-05-02T03:00:46;100939.72;;;12.45;26.54
63339;BME280;47485;51.378;-1.342;2023-05-02T03:03:14;100943.34;;;13.14;25.77
63339;BME280;47485;51.378;-1.342;2023-05-02T03:05:44;100943.66;;;12.89;25.37
63339;BME280;47485;51.378;-1.342;2023-05-02T03:08:12;100949.15;;;11.94;25.58
63339;BME280;47485;51.378;-1.342;2023-05-02T03:10:39;100949.53;;;11.66;26.39
63339;BME280;47485;51.378;-1.342;2023-05-02T03:13:05;100953.61;;;9.49;27.59
63339;BME280;47485;51.378;-1.342;2023-05-02T03:16:26;100960.96;;;8.64;29.85
63339;BME280;47485;51.378;-1.342;2023-05-02T03:18:56;100959.08;;;7.84;28.74
63339;BME280;47485;51.378;-1.342;2023-05-02T03:21:23;100962.02;;;5.43;30.18
63339;BME280;47485;51.378;-1.342;2023-05-02T03:23:50;100966.44;;;9.58;27.60
63339;BME280;47485;51.378;-1.342;2023-05-02T03:26:16;100972.68;;;8.18;29.55
63339;BME280;47485;51.378;-1.342;2023-05-02T03:28:43;100980.43;;;8.72;29.20
63339;BME280;47485;51.378;-1.342;2023-05-02T03:31:10;100983.70;;;9.22;28.16
63339;BME280;47485;51.378;-1.342;2023-05-02T03:33:37;100988.64;;;9.67;28.19
63339;BME280;47485;51.378;-1.342;2023-05-02T03:36:05;100986.32;;;8.13;29.28
63339;BME280;47485;51.378;-1.342;2023-05-02T03:38:32;100988.86;;;11.29;27.76
63339;BME280;47485;51.378;-1.342;2023-05-02T03:40:58;100991.80;;;7.87;29.09
63339;BME280;47485;51.378;-1.342;2023-05-02T03:43:25;100995.54;;;8.09;29.59
63339;BME280;47485;51.378;-1.342;2023-05-02T03:45:52;100999.79;;;7.80;30.13
63339;BME280;47485;51.378;-1.342;2023-05-02T03:48:20;101000.73;;;10.46;29.17
63339;BME280;47485;51.378;-1.342;2023-05-02T03:50:48;100999.41;;;8.06;30.71
63339;BME280;47485;51.378;-1.342;2023-05-02T03:53:15;101001.07;;;7.64;31.64
63339;BME280;47485;51.378;-1.342;2023-05-02T03:55:43;101004.33;;;10.39;30.54
63339;BME280;47485;51.378;-1.342;2023-05-02T03:58:11;101010.61;;;7.52;31.25
63339;BME280;47485;51.378;-1.342;2023-05-02T04:00:38;101013.46;;;7.07;32.20
63339;BME280;47485;51.378;-1.342;2023-05-02T04:03:05;101019.42;;;6.29;33.13
63339;BME280;47485;51.378;-1.342;2023-05-02T04:05:32;101021.87;;;7.69;32.58
63339;BME280;47485;51.378;-1.342;2023-05-02T04:08:00;101022.84;;;7.97;32.20
63339;BME280;47485;51.378;-1.342;2023-05-02T04:10:27;101027.57;;;7.17;32.67
63339;BME280;47485;51.378;-1.342;2023-05-02T04:12:54;101028.32;;;7.51;32.11
63339;BME280;47485;51.378;-1.342;2023-05-02T04:15:21;101032.68;;;6.76;32.73
63339;BME280;47485;51.378;-1.342;2023-05-02T04:17:48;101030.07;;;8.52;31.45
63339;BME280;47485;51.378;-1.342;2023-05-02T04:20:15;101033.05;;;8.14;30.81
63339;BME280;47485;51.378;-1.342;2023-05-02T04:22:42;101032.71;;;9.75;30.49
63339;BME280;47485;51.378;-1.342;2023-05-02T04:25:10;101033.00;;;8.92;30.80
63339;BME280;47485;51.378;-1.342;2023-05-02T04:27:37;101033.04;;;8.69;30.14
63339;BME280;47485;51.378;-1.342;2023-05-02T04:30:06;101036.39;;;9.64;29.85
63339;BME280;47485;51.378;-1.342;2023-05-02T04:32:33;101035.33;;;8.97;30.32
63339;BME280;47485;51.378;-1.342;2023-05-02T04:35:00;101033.45;;;9.12;29.62
63339;BME280;47485;51.378;-1.342;2023-05-02T04:37:26;101032.57;;;10.92;28.60
63339;BME280;47485;51.378;-1.342;2023-05-02T04:39:53;101034.06;;;10.61;28.68
63339;BME280;47485;51.378;-1.342;2023-05-02T04:42:20;101034.08;;;11.01;28.40
63339;BME280;47485;51.378;-1.342;2023-05-02T04:44:47;101033.87;;;9.87;28.92
63339;BME280;47485;51.378;-1.342;2023-05-02T04:47:14;101033.41;;;10.01;29.46
63339;BME280;47485;51.378;-1.342;2023-05-02T04:49:42;101037.58;;;9.86;29.58
63339;BME280;47485;51.378;-1.342;2023-05-02T04:52:10;101039.45;;;9.08;30.38
63339;BME280;47485;51.378;-1.342;2023-05-02T04:54:37;101041.44;;;9.59;30.40
63339;BME280;47485;51.378;-1.342;2023-05-02T04:57:03;101043.36;;;8.30;31.61
63339;BME280;47485;51.378;-1.342;2023-05-02T04:59:30;101045.27;;;9.51;30.28
63339;BME280;47485;51.378;-1.342;2023-05-02T05:01:57;101045.64;;;9.45;29.47
63339;BME280;47485;51.378;-1.342;2023-05-02T05:04:24;101050.33;;;10.74;29.59
63339;BME280;47485;51.378;-1.342;2023-05-02T05:06:51;101051.28;;;11.37;29.14
63339;BME280;47485;51.378;-1.342;2023-05-02T05:09:18;101054.27;;;7.56;30.94
63339;BME280;47485;51.378;-1.342;2023-05-02T05:11:46;101052.97;;;8.37;30.32
63339;BME280;47485;51.378;-1.342;2023-05-02T05:14:14;101056.54;;;9.71;29.57
63339;BME280;47485;51.378;-1.342;2023-05-02T05:16:41;101057.93;;;9.99;29.59
63339;BME280;47485;51.378;-1.342;2023-05-02T05:19:08;101060.35;;;9.80;29.88
63339;BME280;47485;51.378;-1.342;2023-05-02T05:21:35;101058.18;;;11.51;29.71
63339;BME280;47485;51.378;-1.342;2023-05-02T05:24:02;101059.03;;;8.94;30.12
63339;BME280;47485;51.378;-1.342;2023-05-02T05:26:28;101056.55;;;8.47;31.23
63339;BME280;47485;51.378;-1.342;2023-05-02T05:28:57;101054.89;;;8.75;31.44
63339;BME280;47485;51.378;-1.342;2023-05-02T05:31:24;101057.32;;;8.34;32.81
63339;BME280;47485;51.378;-1.342;2023-05-02T05:33:51;101054.05;;;10.40;31.70
63339;BME280;47485;51.378;-1.342;2023-05-02T05:36:18;101061.89;;;7.65;33.53
63339;BME280;47485;51.378;-1.342;2023-05-02T05:38:45;101061.42;;;9.84;31.68
63339;BME280;47485;51.378;-1.342;2023-05-02T05:41:12;101062.97;;;8.33;31.14
63339;BME280;47485;51.378;-1.342;2023-05-02T05:43:38;101059.43;;;9.60;31.46
63339;BME280;47485;51.378;-1.342;2023-05-02T05:46:05;101060.41;;;9.38;31.78
63339;BME280;47485;51.378;-1.342;2023-05-02T05:48:32;101060.74;;;10.14;31.24
63339;BME280;47485;51.378;-1.342;2023-05-02T05:51:02;101061.33;;;8.58;31.28
63339;BME280;47485;51.378;-1.342;2023-05-02T05:53:29;101062.64;;;10.68;30.90
63339;BME280;47485;51.378;-1.342;2023-05-02T05:55:56;101068.50;;;7.02;33.09
63339;BME280;47485;51.378;-1.342;2023-05-02T05:58:23;101066.72;;;9.30;30.87
63339;BME280;47485;51.378;-1.342;2023-05-02T06:00:50;101069.18;;;7.91;31.54
63339;BME280;47485;51.378;-1.342;2023-05-02T06:03:17;101077.66;;;8.94;31.10
63339;BME280;47485;51.378;-1.342;2023-05-02T06:05:43;101078.10;;;8.37;31.40
63339;BME280;47485;51.378;-1.342;2023-05-02T06:08:11;101081.06;;;7.29;32.78
63339;BME280;47485;51.378;-1.342;2023-05-02T06:10:38;101082.76;;;10.15;30.66
63339;BME280;47485;51.378;-1.342;2023-05-02T06:13:04;101087.83;;;9.01;31.45
63339;BME280;47485;51.378;-1.342;2023-05-02T06:15:32;101090.15;;;9.17;31.45
63339;BME280;47485;51.378;-1.342;2023-05-02T06:17:59;101090.64;;;9.82;31.47
63339;BME280;47485;51.378;-1.342;2023-05-02T06:20:26;101097.26;;;8.30;31.77
63339;BME280;47485;51.378;-1.342;2023-05-02T06:22:53;101101.74;;;7.06;32.72
63339;BME280;47485;51.378;-1.342;2023-05-02T06:25:21;101101.44;;;9.28;30.30
63339;BME280;47485;51.378;-1.342;2023-05-02T06:27:48;101103.99;;;7.92;31.47
63339;BME280;47485;51.378;-1.342;2023-05-02T06:30:15;101108.79;;;9.95;30.05
63339;BME280;47485;51.378;-1.342;2023-05-02T06:32:41;101113.66;;;10.63;29.36
63339;BME280;47485;51.378;-1.342;2023-05-02T06:35:09;101112.88;;;10.01;29.88
63339;BME280;47485;51.378;-1.342;2023-05-02T06:37:36;101115.05;;;9.00;30.80
63339;BME280;47485;51.378;-1.342;2023-05-02T06:40:05;101120.69;;;9.53;30.86
63339;BME280;47485;51.378;-1.342;2023-05-02T06:42:31;101124.28;;;11.34;29.82
63339;BME280;47485;51.378;-1.342;2023-05-02T06:44:58;101123.67;;;9.79;30.34
63339;BME280;47485;51.378;-1.342;2023-05-02T06:47:25;101124.69;;;8.70;30.42
63339;BME280;47485;51.378;-1.342;2023-05-02T06:49:52;101127.67;;;9.68;29.97
63339;BME280;47485;51.378;-1.342;2023-05-02T06:52:18;101129.99;;;8.90;30.32
63339;BME280;47485;51.378;-1.342;2023-05-02T06:54:45;101129.32;;;9.04;29.82
63339;BME280;47485;51.378;-1.342;2023-05-02T06:57:12;101128.46;;;9.96;29.30
63339;BME280;47485;51.378;-1.342;2023-05-02T06:59:39;101130.85;;;9.33;29.44
63339;BME280;47485;51.378;-1.342;2023-05-02T07:02:06;101132.21;;;10.08;29.61
63339;BME280;47485;51.378;-1.342;2023-05-02T07:04:32;101131.71;;;10.63;30.14
63339;BME280;47485;51.378;-1.342;2023-05-02T07:06:59;101131.29;;;9.48;30.06
63339;BME280;47485;51.378;-1.342;2023-05-02T07:09:26;101127.77;;;10.90;28.88
63339;BME280;47485;51.378;-1.342;2023-05-02T07:11:53;101126.60;;;9.82;30.48
63339;BME280;47485;51.378;-1.342;2023-05-02T07:14:19;101129.27;;;9.87;29.44
63339;BME280;47485;51.378;-1.342;2023-05-02T07:16:47;101130.27;;;10.00;30.43
63339;BME280;47485;51.378;-1.342;2023-05-02T07:19:13;101132.18;;;7.64;31.73
63339;BME280;47485;51.378;-1.342;2023-05-02T07:21:40;101129.65;;;7.86;31.60
63339;BME280;47485;51.378;-1.342;2023-05-02T07:24:07;101129.02;;;8.39;30.51
63339;BME280;47485;51.378;-1.342;2023-05-02T07:26:34;101130.99;;;7.61;31.31
63339;BME280;47485;51.378;-1.342;2023-05-02T07:29:01;101129.21;;;10.00;29.33
63339;BME280;47485;51.378;-1.342;2023-05-02T07:31:27;101132.95;;;10.40;28.69
63339;BME280;47485;51.378;-1.342;2023-05-02T07:33:54;101131.03;;;7.04;30.70
63339;BME280;47485;51.378;-1.342;2023-05-02T07:36:21;101128.26;;;9.00;29.69
63339;BME280;47485;51.378;-1.342;2023-05-02T07:38:47;101131.34;;;9.01;29.16
63339;BME280;47485;51.378;-1.342;2023-05-02T07:41:14;101135.21;;;10.94;28.41
63339;BME280;47485;51.378;-1.342;2023-05-02T07:43:41;101136.22;;;10.33;29.17
63339;BME280;47485;51.378;-1.342;2023-05-02T07:46:08;101131.76;;;10.97;27.92
63339;BME280;47485;51.378;-1.342;2023-05-02T07:48:35;101136.72;;;9.91;28.42
63339;BME280;47485;51.378;-1.342;2023-05-02T07:51:06;101140.62;;;8.81;30.27
63339;BME280;47485;51.378;-1.342;2023-05-02T07:53:34;101142.48;;;8.71;30.67
63339;BME280;47485;51.378;-1.342;2023-05-02T07:56:02;101146.05;;;8.15;30.90
63339;BME280;47485;51.378;-1.342;2023-05-02T07:58:29;101148.44;;;9.26;30.37
63339;BME280;47485;51.378;-1.342;2023-05-02T08:00:56;101150.04;;;8.05;30.93
63339;BME280;47485;51.378;-1.342;2023-05-02T08:03:23;101150.82;;;9.25;29.28
63339;BME280;47485;51.378;-1.342;2023-05-02T08:05:50;101147.75;;;10.12;29.11
63339;BME280;47485;51.378;-1.342;2023-05-02T08:08:16;101151.47;;;10.61;29.06
63339;BME280;47485;51.378;-1.342;2023-05-02T08:10:43;101155.89;;;10.60;28.80
63339;BME280;47485;51.378;-1.342;2023-05-02T08:13:11;101161.45;;;11.70;28.04
63339;BME280;47485;51.378;-1.342;2023-05-02T08:15:37;101166.72;;;12.33;27.71
63339;BME280;47485;51.378;-1.342;2023-05-02T08:18:04;101169.10;;;9.18;28.53
63339;BME280;47485;51.378;-1.342;2023-05-02T08:20:31;101170.77;;;10.26;29.04
63339;BME280;47485;51.378;-1.342;2023-05-02T08:22:58;101174.00;;;7.98;30.93
63339;BME280;47485;51.378;-1.342;2023-05-02T08:25:25;101177.89;;;8.01;29.91
63339;BME280;47485;51.378;-1.342;2023-05-02T08:27:51;101180.10;;;7.31;30.39
63339;BME280;47485;51.378;-1.342;2023-05-02T08:30:18;101186.59;;;9.59;29.53
63339;BME280;47485;51.378;-1.342;2023-05-02T08:32:45;101191.52;;;11.48;28.38
63339;BME280;47485;51.378;-1.342;2023-05-02T08:35:12;101192.22;;;9.53;30.15
63339;BME280;47485;51.378;-1.342;2023-05-02T08:37:39;101195.24;;;8.83;30.28
63339;BME280;47485;51.378;-1.342;2023-05-02T08:40:11;101195.09;;;10.10;28.74
63339;BME280;47485;51.378;-1.342;2023-05-02T08:42:41;101197.66;;;11.73;27.76
63339;BME280;47485;51.378;-1.342;2023-05-02T08:45:11;101200.22;;;10.68;28.15
63339;BME280;47485;51.378;-1.342;2023-05-02T08:47:39;101200.37;;;12.23;28.51
63339;BME280;47485;51.378;-1.342;2023-05-02T08:50:09;101201.24;;;10.12;28.03
63339;BME280;47485;51.378;-1.342;2023-05-02T08:52:36;101206.21;;;8.47;29.99
63339;BME280;47485;51.378;-1.342;2023-05-02T08:55:05;101206.53;;;10.20;27.71
63339;BME280;47485;51.378;-1.342;2023-05-02T08:57:33;101208.44;;;10.48;28.87
63339;BME280;47485;51.378;-1.342;2023-05-02T09:00:00;101210.67;;;10.74;28.38
63339;BME280;47485;51.378;-1.342;2023-05-02T09:02:46;101221.98;;;10.24;29.12
63339;BME280;47485;51.378;-1.342;2023-05-02T09:05:19;101220.51;;;10.68;27.86
63339;BME280;47485;51.378;-1.342;2023-05-02T09:07:50;101218.46;;;12.90;27.14
63339;BME280;47485;51.378;-1.342;2023-05-02T09:10:18;101211.87;;;10.43;27.33
63339;BME280;47485;51.378;-1.342;2023-05-02T09:12:45;101212.10;;;9.82;28.38
63339;BME280;47485;51.378;-1.342;2023-05-02T09:15:13;101220.60;;;11.15;27.97
63339;BME280;47485;51.378;-1.342;2023-05-02T09:17:41;101217.50;;;12.44;27.52
63339;BME280;47485;51.378;-1.342;2023-05-02T09:20:10;101214.73;;;12.27;26.93
63339;BME280;47485;51.378;-1.342;2023-05-02T09:22:38;101214.04;;;11.18;28.43
63339;BME280;47485;51.378;-1.342;2023-05-02T09:25:05;101211.00;;;9.55;28.66
63339;BME280;47485;51.378;-1.342;2023-05-02T09:27:48;101215.76;;;11.61;28.06
63339;BME280;47485;51.378;-1.342;2023-05-02T09:30:19;101213.66;;;11.06;28.35
63339;BME280;47485;51.378;-1.342;2023-05-02T09:32:47;101213.18;;;10.57;29.05
63339;BME280;47485;51.378;-1.342;2023-05-02T09:35:14;101209.18;;;7.08;31.14
63339;BME280;47485;51.378;-1.342;2023-05-02T09:37:41;101212.30;;;7.86;30.65
63339;BME280;47485;51.378;-1.342;2023-05-02T09:40:10;101215.52;;;11.13;28.78
63339;BME280;47485;51.378;-1.342;2023-05-02T09:42:36;101219.48;;;11.46;27.96
63339;BME280;47485;51.378;-1.342;2023-05-02T09:45:04;101226.92;;;12.32;28.44
63339;BME280;47485;51.378;-1.342;2023-05-02T09:47:30;101227.46;;;11.55;27.62
63339;BME280;47485;51.378;-1.342;2023-05-02T09:49:57;101234.96;;;11.68;27.53
63339;BME280;47485;51.378;-1.342;2023-05-02T09:52:24;101243.92;;;11.93;26.92
63339;BME280;47485;51.378;-1.342;2023-05-02T09:54:50;101249.51;;;11.36;27.83
63339;BME280;47485;51.378;-1.342;2023-05-02T09:57:17;101249.03;;;13.44;27.14
63339;BME280;47485;51.378;-1.342;2023-05-02T09:59:53;101250.65;;;12.77;27.07
63339;BME280;47485;51.378;-1.342;2023-05-02T10:02:21;101246.97;;;12.41;26.98
63339;BME280;47485;51.378;-1.342;2023-05-02T10:04:50;101245.55;;;11.09;27.21
63339;BME280;47485;51.378;-1.342;2023-05-02T10:07:19;101247.95;;;12.91;26.93
63339;BME280;47485;51.378;-1.342;2023-05-02T10:09:48;101250.49;;;12.13;27.63
63339;BME280;47485;51.378;-1.342;2023-05-02T10:12:19;101252.80;;;12.62;26.96
63339;BME280;47485;51.378;-1.342;2023-05-02T10:14:54;101257.69;;;13.50;26.69
63339;BME280;47485;51.378;-1.342;2023-05-02T10:17:30;101262.37;;;12.38;26.51
63339;BME280;47485;51.378;-1.342;2023-05-02T10:20:03;101263.49;;;14.13;26.28
63339;BME280;47485;51.378;-1.342;2023-05-02T10:22:30;101265.22;;;11.92;27.08
63339;BME280;47485;51.378;-1.342;2023-05-02T10:24:59;101264.21;;;11.32;27.21
63339;BME280;47485;51.378;-1.342;2023-05-02T10:27:28;101266.97;;;12.00;27.24
63339;BME280;47485;51.378;-1.342;2023-05-02T10:29:58;101265.94;;;11.02;27.61
63339;BME280;47485;51.378;-1.342;2023-05-02T10:32:27;101266.14;;;12.19;26.85
63339;BME280;47485;51.378;-1.342;2023-05-02T10:34:55;101263.09;;;12.69;26.97
63339;BME280;47485;51.378;-1.342;2023-05-02T10:37:25;101262.92;;;9.85;28.24
63339;BME280;47485;51.378;-1.342;2023-05-02T10:39:53;101258.92;;;11.02;27.72
63339;BME280;47485;51.378;-1.342;2023-05-02T10:42:20;101252.73;;;13.54;26.29
63339;BME280;47485;51.378;-1.342;2023-05-02T10:44:48;101255.68;;;13.31;26.49
63339;BME280;47485;51.378;-1.342;2023-05-02T10:47:17;101253.98;;;10.34;29.18
63339;BME280;47485;51.378;-1.342;2023-05-02T10:49:53;101254.18;;;9.77;29.78
63339;BME280;47485;51.378;-1.342;2023-05-02T10:52:25;101260.89;;;13.15;26.92
63339;BME280;47485;51.378;-1.342;2023-05-02T10:55:13;101263.70;;;12.82;26.69
63339;BME280;47485;51.378;-1.342;2023-05-02T10:58:19;101265.82;;;12.76;27.09
63339;BME280;47485;51.378;-1.342;2023-05-02T11:00:46;101267.22;;;10.76;28.87
63339;BME280;47485;51.378;-1.342;2023-05-02T11:03:13;101266.64;;;12.07;27.73
63339;BME280;47485;51.378;-1.342;2023-05-02T11:06:04;101265.68;;;12.64;27.26
63339;BME280;47485;51.378;-1.342;2023-05-02T11:08:31;101272.74;;;12.13;27.38
63339;BME280;47485;51.378;-1.342;2023-05-02T11:11:37;101271.69;;;11.44;27.10
63339;BME280;47485;51.378;-1.342;2023-05-02T11:14:04;101268.09;;;10.82;27.86
63339;BME280;47485;51.378;-1.342;2023-05-02T11:17:04;101270.91;;;12.09;27.50
63339;BME280;47485;51.378;-1.342;2023-05-02T11:20:17;101270.62;;;11.91;26.90
63339;BME280;47485;51.378;-1.342;2023-05-02T11:22:44;101269.97;;;10.58;28.81
63339;BME280;47485;51.378;-1.342;2023-05-02T11:25:28;101271.61;;;10.13;29.21
63339;BME280;47485;51.378;-1.342;2023-05-02T11:27:55;101277.74;;;11.05;28.17
63339;BME280;47485;51.378;-1.342;2023-05-02T11:30:37;101281.07;;;11.46;27.23
63339;BME280;47485;51.378;-1.342;2023-05-02T11:33:13;101283.71;;;9.99;28.49
63339;BME280;47485;51.378;-1.342;2023-05-02T11:35:42;101286.45;;;10.07;28.28
63339;BME280;47485;51.378;-1.342;2023-05-02T11:38:11;101284.14;;;11.90;26.18
63339;BME280;47485;51.378;-1.342;2023-05-02T11:40:38;101282.55;;;12.77;26.21
63339;BME280;47485;51.378;-1.342;2023-05-02T11:43:14;101281.21;;;11.74;27.32
63339;BME280;47485;51.378;-1.342;2023-05-02T11:45:41;101277.28;;;11.69;27.64
63339;BME280;47485;51.378;-1.342;2023-05-02T11:48:11;101268.03;;;13.35;26.17
63339;BME280;47485;51.378;-1.342;2023-05-02T11:50:42;101270.85;;;12.75;27.54
63339;BME280;47485;51.378;-1.342;2023-05-02T11:53:11;101269.90;;;8.83;29.53
63339;BME280;47485;51.378;-1.342;2023-05-02T11:55:43;101261.86;;;12.95;26.75
63339;BME280;47485;51.378;-1.342;2023-05-02T11:58:13;101259.41;;;12.52;27.74
63339;BME280;47485;51.378;-1.342;2023-05-02T12:00:40;101254.83;;;11.88;26.41
63339;BME280;47485;51.378;-1.342;2023-05-02T12:03:06;101257.70;;;14.08;26.56
63339;BME280;47485;51.378;-1.342;2023-05-02T12:05:33;101255.74;;;12.10;27.40
63339;BME280;47485;51.378;-1.342;2023-05-02T12:08:00;101254.57;;;13.21;27.44
63339;BME280;47485;51.378;-1.342;2023-05-02T12:10:35;101252.77;;;12.31;27.86
63339;BME280;47485;51.378;-1.342;2023-05-02T12:13:04;101249.10;;;8.34;31.56
63339;BME280;47485;51.378;-1.342;2023-05-02T12:15:31;101250.04;;;10.77;29.72
63339;BME280;47485;51.378;-1.342;2023-05-02T12:17:58;101256.30;;;12.39;28.66
63339;BME280;47485;51.378;-1.342;2023-05-02T12:20:26;101256.20;;;12.87;27.97
63339;BME280;47485;51.378;-1.342;2023-05-02T12:22:53;101261.14;;;10.61;29.14
63339;BME280;47485;51.378;-1.342;2023-05-02T12:25:20;101266.85;;;11.27;28.36
63339;BME280;47485;51.378;-1.342;2023-05-02T12:28:03;101266.77;;;11.13;28.35
63339;BME280;47485;51.378;-1.342;2023-05-02T12:30:30;101261.98;;;14.21;26.01
63339;BME280;47485;51.378;-1.342;2023-05-02T12:32:59;101268.97;;;11.63;28.83
63339;BME280;47485;51.378;-1.342;2023-05-02T12:35:27;101276.84;;;8.57;30.20
63339;BME280;47485;51.378;-1.342;2023-05-02T12:37:54;101273.69;;;11.65;28.05
63339;BME280;47485;51.378;-1.342;2023-05-02T12:40:33;101268.00;;;9.31;30.88
63339;BME280;47485;51.378;-1.342;2023-05-02T12:43:01;101258.82;;;11.26;28.39
63339;BME280;47485;51.378;-1.342;2023-05-02T12:45:28;101257.72;;;9.33;30.00
63339;BME280;47485;51.378;-1.342;2023-05-02T12:47:54;101260.52;;;10.76;27.80
63339;BME280;47485;51.378;-1.342;2023-05-02T12:50:34;101268.25;;;11.95;27.56
63339;BME280;47485;51.378;-1.342;2023-05-02T12:53:01;101273.04;;;11.37;28.50
63339;BME280;47485;51.378;-1.342;2023-05-02T12:55:28;101271.03;;;12.71;27.55